sensor_id;sensor_type;location;lat;lon;timestamp;pressure;altitude;pressure_sealevel;temperature;humidity
29839;BME280;18669;53.356;-1.464;2022-07-24T00:01:48;100264.97;;;20.47;100.00
29839;BME280;18669;53.356;-1.464;2022-07-24T00:04:14;100258.13;;;20.43;100.00
29839;BME280;18669;53.356;-1.464;2022-07-24T00:06:40;100249.47;;;20.39;100.00
29839;BME280;18669;53.356;-1.464;2022-07-24T00:09:06;100243.03;;;20.42;100.00
29839;BME280;18669;53.356;-1.464;2022-07-24T00:11:32;100245.50;;;20.45;100.00
29839;BME280;18669;53.356;-1.464;2022-07-24T00:13:58;100249.47;;;20.39;100.00
29839;BME280;18669;53.356;-1.464;2022-07-24T00:16:24;100242.28;;;20.40;100.00
29839;BME280;18669;53.356;-1.464;2022-07-24T00:18:49;100229.13;;;20.37;100.00
29839;BME280;18669;53.356;-1.464;2022-07-24T00:21:15;100228.59;;;20.32;100.00
29839;BME280;18669;53.356;-1.464;2022-07-24T00:23:41;100237.16;;;20.37;100.00
29839;BME280;18669;53.356;-1.464;2022-07-24T00:26:10;100233.09;;;20.31;100.00
29839;BME280;18669;53.356;-1.464;2022-07-24T00:28:36;100227.34;;;20.37;100.00
29839;BME280;18669;53.356;-1.464;2022-07-24T00:31:02;100225.31;;;20.41;100.00
29839;BME280;18669;53.356;-1.464;2022-07-24T00:33:28;100217.63;;;20.36;100.00
29839;BME280;18669;53.356;-1.464;2022-07-24T00:35:54;100221.13;;;20.37;100.00
29839;BME280;18669;53.356;-1.464;2022-07-24T00:38:19;100223.03;;;20.35;100.00
29839;BME280;18669;53.356;-1.464;2022-07-24T00:40:45;100226.78;;;20.32;100.00
29839;BME280;18669;53.356;-1.464;2022-07-24T00:43:11;100221.56;;;20.31;100.00
29839;BME280;18669;53.356;-1.464;2022-07-24T00:45:38;100222.72;;;20.26;100.00
29839;BME280;18669;53.356;-1.464;2022-07-24T00:48:04;100214.94;;;20.23;100.00
29839;BME280;18669;53.356;-1.464;2022-07-24T00:50:30;100216.72;;;20.23;100.00
29839;BME280;18669;53.356;-1.464;2022-07-24T00:52:56;100211.28;;;20.24;100.00
29839;BME280;18669;53.356;-1.464;2022-07-24T00:55:23;100201.44;;;20.25;100.00
29839;BME280;18669;53.356;-1.464;2022-07-24T00:57:49;100200.63;;;20.24;100.00
29839;BME280;18669;53.356;-1.464;2022-07-24T01:00:15;100198.03;;;20.23;100.00
29839;BME280;18669;53.356;-1.464;2022-07-24T01:02:42;100191.19;;;20.19;100.00
29839;BME280;18669;53.356;-1.464;2022-07-24T01:05:08;100185.97;;;20.17;100.00
29839;BME280;18669;53.356;-1.464;2022-07-24T01:07:34;100192.34;;;20.15;100.00
29839;BME280;18669;53.356;-1.464;2022-07-24T01:10:00;100201.56;;;20.23;100.00
29839;BME280;18669;53.356;-1.464;2022-07-24T01:12:26;100204.13;;;20.25;100.00
29839;BME280;18669;53.356;-1.464;2022-07-24T01:14:52;100194.09;;;20.29;100.00
29839;BME280;18669;53.356;-1.464;2022-07-24T01:17:18;100201.25;;;20.28;100.00
29839;BME280;18669;53.356;-1.464;2022-07-24T01:19:44;100192.41;;;20.27;100.00
29839;BME280;18669;53.356;-1.464;2022-07-24T01:22:10;100190.88;;;20.23;100.00
29839;BME280;18669;53.356;-1.464;2022-07-24T01:24:36;100179.44;;;20.21;100.00
29839;BME280;18669;53.356;-1.464;2022-07-24T01:27:02;100179.75;;;20.17;100.00
29839;BME280;18669;53.356;-1.464;2022-07-24T01:29:28;100178.28;;;20.25;100.00
29839;BME280;18669;53.356;-1.464;2022-07-24T01:31:54;100164.19;;;20.23;100.00
29839;BME280;18669;53.356;-1.464;2022-07-24T01:34:20;100164.06;;;20.25;100.00
29839;BME280;18669;53.356;-1.464;2022-07-24T01:36:46;100161.94;;;20.30;100.00
29839;BME280;18669;53.356;-1.464;2022-07-24T01:39:11;100160.22;;;20.29;100.00
29839;BME280;18669;53.356;-1.464;2022-07-24T01:41:37;100158.72;;;20.25;100.00
29839;BME280;18669;53.356;-1.464;2022-07-24T01:44:03;100154.25;;;20.25;100.00
29839;BME280;18669;53.356;-1.464;2022-07-24T01:46:29;100146.78;;;20.31;100.00
29839;BME280;18669;53.356;-1.464;2022-07-24T01:48:55;100155.09;;;20.26;100.00
29839;BME280;18669;53.356;-1.464;2022-07-24T01:51:21;100162.47;;;20.22;100.00
29839;BME280;18669;53.356;-1.464;2022-07-24T01:53:47;100154.03;;;20.29;100.00
29839;BME280;18669;53.356;-1.464;2022-07-24T01:56:13;100157.22;;;20.34;100.00
29839;BME280;18669;53.356;-1.464;2022-07-24T01:58:39;100159.69;;;20.37;100.00
29839;BME280;18669;53.356;-1.464;2022-07-24T02:01:05;100147.19;;;20.37;100.00
29839;BME280;18669;53.356;-1.464;2022-07-24T02:03:32;100138.97;;;20.40;100.00
29839;BME280;18669;53.356;-1.464;2022-07-24T02:05:57;100135.53;;;20.38;100.00
29839;BME280;18669;53.356;-1.464;2022-07-24T02:08:23;100146.22;;;20.38;100.00
29839;BME280;18669;53.356;-1.464;2022-07-24T02:10:49;100162.81;;;20.44;100.00
29839;BME280;18669;53.356;-1.464;2022-07-24T02:13:15;100160.75;;;20.34;100.00
29839;BME280;18669;53.356;-1.464;2022-07-24T02:15:41;100143.44;;;20.40;100.00
29839;BME280;18669;53.356;-1.464;2022-07-24T02:18:07;100147.72;;;20.30;100.00
29839;BME280;18669;53.356;-1.464;2022-07-24T02:20:33;100141.41;;;20.18;100.00
29839;BME280;18669;53.356;-1.464;2022-07-24T02:22:59;100146.53;;;20.08;100.00
29839;BME280;18669;53.356;-1.464;2022-07-24T02:25:24;100156.06;;;19.85;100.00
29839;BME280;18669;53.356;-1.464;2022-07-24T02:27:50;100163.88;;;19.60;100.00
29839;BME280;18669;53.356;-1.464;2022-07-24T02:30:18;100156.16;;;19.43;100.00
29839;BME280;18669;53.356;-1.464;2022-07-24T02:32:44;100157.03;;;19.29;100.00
29839;BME280;18669;53.356;-1.464;2022-07-24T02:35:10;100155.91;;;19.18;100.00
29839;BME280;18669;53.356;-1.464;2022-07-24T02:37:40;100156.50;;;19.09;100.00
29839;BME280;18669;53.356;-1.464;2022-07-24T02:40:07;100166.81;;;19.01;100.00
29839;BME280;18669;53.356;-1.464;2022-07-24T02:42:33;100156.78;;;18.90;100.00
29839;BME280;18669;53.356;-1.464;2022-07-24T02:44:59;100155.38;;;18.84;100.00
29839;BME280;18669;53.356;-1.464;2022-07-24T02:47:25;100146.91;;;18.77;100.00
29839;BME280;18669;53.356;-1.464;2022-07-24T02:49:51;100159.38;;;18.77;100.00
29839;BME280;18669;53.356;-1.464;2022-07-24T02:52:16;100158.91;;;18.70;100.00
29839;BME280;18669;53.356;-1.464;2022-07-24T02:54:42;100152.63;;;18.71;100.00
29839;BME280;18669;53.356;-1.464;2022-07-24T02:57:08;100134.66;;;18.60;100.00
29839;BME280;18669;53.356;-1.464;2022-07-24T02:59:34;100144.72;;;18.55;100.00
29839;BME280;18669;53.356;-1.464;2022-07-24T03:02:00;100161.84;;;18.51;100.00
29839;BME280;18669;53.356;-1.464;2022-07-24T03:04:26;100166.41;;;18.49;100.00
29839;BME280;18669;53.356;-1.464;2022-07-24T03:06:51;100166.41;;;18.49;100.00
29839;BME280;18669;53.356;-1.464;2022-07-24T03:09:17;100172.50;;;18.51;100.00
29839;BME280;18669;53.356;-1.464;2022-07-24T03:11:43;100176.69;;;18.55;100.00
29839;BME280;18669;53.356;-1.464;2022-07-24T03:14:09;100167.66;;;18.58;100.00
29839;BME280;18669;53.356;-1.464;2022-07-24T03:16:35;100154.63;;;18.53;100.00
29839;BME280;18669;53.356;-1.464;2022-07-24T03:19:02;100161.00;;;18.51;100.00
29839;BME280;18669;53.356;-1.464;2022-07-24T03:21:28;100161.00;;;18.51;100.00
29839;BME280;18669;53.356;-1.464;2022-07-24T03:23:54;100154.06;;;18.48;100.00
29839;BME280;18669;53.356;-1.464;2022-07-24T03:26:20;100150.44;;;18.49;100.00
29839;BME280;18669;53.356;-1.464;2022-07-24T03:28:46;100158.25;;;18.52;100.00
29839;BME280;18669;53.356;-1.464;2022-07-24T03:31:12;100158.34;;;18.51;100.00
29839;BME280;18669;53.356;-1.464;2022-07-24T03:33:38;100163.88;;;18.47;100.00
29839;BME280;18669;53.356;-1.464;2022-07-24T03:36:04;100155.28;;;18.42;100.00
29839;BME280;18669;53.356;-1.464;2022-07-24T03:38:29;100155.38;;;18.41;100.00
29839;BME280;18669;53.356;-1.464;2022-07-24T03:40:55;100155.28;;;18.42;100.00
29839;BME280;18669;53.356;-1.464;2022-07-24T03:43:21;100154.94;;;18.48;100.00
29839;BME280;18669;53.356;-1.464;2022-07-24T03:45:47;100150.34;;;18.51;100.00
29839;BME280;18669;53.356;-1.464;2022-07-24T03:48:13;100148.53;;;18.51;100.00
29839;BME280;18669;53.356;-1.464;2022-07-24T03:50:39;100145.78;;;18.53;100.00
29839;BME280;18669;53.356;-1.464;2022-07-24T03:53:05;100146.63;;;18.53;100.00
29839;BME280;18669;53.356;-1.464;2022-07-24T03:55:30;100149.78;;;18.45;100.00
29839;BME280;18669;53.356;-1.464;2022-07-24T03:57:56;100142.75;;;18.44;100.00
29839;BME280;18669;53.356;-1.464;2022-07-24T04:00:22;100147.31;;;18.42;100.00
29839;BME280;18669;53.356;-1.464;2022-07-24T04:02:48;100143.50;;;18.46;100.00
29839;BME280;18669;53.356;-1.464;2022-07-24T04:05:14;100153.03;;;18.51;100.00
29839;BME280;18669;53.356;-1.464;2022-07-24T04:07:40;100143.41;;;18.48;100.00
29839;BME280;18669;53.356;-1.464;2022-07-24T04:10:07;100144.28;;;18.48;100.00
29839;BME280;18669;53.356;-1.464;2022-07-24T04:12:33;100149.41;;;18.52;100.00
29839;BME280;18669;53.356;-1.464;2022-07-24T04:14:59;100146.81;;;18.50;100.00
29839;BME280;18669;53.356;-1.464;2022-07-24T04:17:25;100144.94;;;18.52;100.00
29839;BME280;18669;53.356;-1.464;2022-07-24T04:19:51;100151.84;;;18.55;100.00
29839;BME280;18669;53.356;-1.464;2022-07-24T04:22:17;100141.50;;;18.50;100.00
29839;BME280;18669;53.356;-1.464;2022-07-24T04:24:43;100153.88;;;18.51;100.00
29839;BME280;18669;53.356;-1.464;2022-07-24T04:27:08;100154.53;;;18.55;100.00
29839;BME280;18669;53.356;-1.464;2022-07-24T04:29:34;100148.06;;;18.59;100.00
29839;BME280;18669;53.356;-1.464;2022-07-24T04:32:00;100149.69;;;18.61;100.00
29839;BME280;18669;53.356;-1.464;2022-07-24T04:34:26;100147.22;;;18.58;100.00
29839;BME280;18669;53.356;-1.464;2022-07-24T04:36:52;100145.38;;;18.59;100.00
29839;BME280;18669;53.356;-1.464;2022-07-24T04:39:17;100129.31;;;18.60;100.00
29839;BME280;18669;53.356;-1.464;2022-07-24T04:41:44;100141.13;;;18.56;100.00
29839;BME280;18669;53.356;-1.464;2022-07-24T04:44:10;100143.59;;;18.59;100.00
29839;BME280;18669;53.356;-1.464;2022-07-24T04:46:36;100148.63;;;18.64;100.00
29839;BME280;18669;53.356;-1.464;2022-07-24T04:49:02;100148.63;;;18.64;100.00
29839;BME280;18669;53.356;-1.464;2022-07-24T04:51:28;100152.06;;;18.66;100.00
29839;BME280;18669;53.356;-1.464;2022-07-24T04:53:54;100153.59;;;18.70;100.00
29839;BME280;18669;53.356;-1.464;2022-07-24T04:56:20;100144.81;;;18.68;100.00
29839;BME280;18669;53.356;-1.464;2022-07-24T04:58:46;100149.50;;;18.64;100.00
29839;BME280;18669;53.356;-1.464;2022-07-24T05:01:12;100137.91;;;18.66;100.00
29839;BME280;18669;53.356;-1.464;2022-07-24T05:03:39;100143.13;;;18.67;100.00
29839;BME280;18669;53.356;-1.464;2022-07-24T05:06:05;100151.09;;;18.67;100.00
29839;BME280;18669;53.356;-1.464;2022-07-24T05:08:31;100144.94;;;18.67;100.00
29839;BME280;18669;53.356;-1.464;2022-07-24T05:10:57;100153.59;;;18.70;100.00
29839;BME280;18669;53.356;-1.464;2022-07-24T05:13:23;100145.28;;;18.75;100.00
29839;BME280;18669;53.356;-1.464;2022-07-24T05:15:49;100151.78;;;18.71;100.00
29839;BME280;18669;53.356;-1.464;2022-07-24T05:18:15;100144.75;;;18.70;100.00
29839;BME280;18669;53.356;-1.464;2022-07-24T05:20:41;100148.25;;;18.70;100.00
29839;BME280;18669;53.356;-1.464;2022-07-24T05:23:06;100148.91;;;18.74;100.00
29839;BME280;18669;53.356;-1.464;2022-07-24T05:25:32;100140.72;;;18.77;100.00
29839;BME280;18669;53.356;-1.464;2022-07-24T05:27:58;100145.50;;;18.72;100.00
29839;BME280;18669;53.356;-1.464;2022-07-24T05:30:24;100140.06;;;18.73;100.00
29839;BME280;18669;53.356;-1.464;2022-07-24T05:32:50;100144.34;;;18.76;100.00
29839;BME280;18669;53.356;-1.464;2022-07-24T05:35:15;100143.50;;;18.75;100.00
29839;BME280;18669;53.356;-1.464;2022-07-24T05:37:41;100141.97;;;18.71;100.00
29839;BME280;18669;53.356;-1.464;2022-07-24T05:40:07;100129.31;;;18.75;100.00
29839;BME280;18669;53.356;-1.464;2022-07-24T05:42:33;100133.47;;;18.79;100.00
29839;BME280;18669;53.356;-1.464;2022-07-24T05:44:59;100132.72;;;18.77;100.00
29839;BME280;18669;53.356;-1.464;2022-07-24T05:47:26;100136.19;;;18.64;100.00
29839;BME280;18669;53.356;-1.464;2022-07-24T05:49:51;100137.31;;;18.60;100.00
29839;BME280;18669;53.356;-1.464;2022-07-24T05:52:17;100140.75;;;18.62;100.00
29839;BME280;18669;53.356;-1.464;2022-07-24T05:54:47;100147.97;;;18.60;100.00
29839;BME280;18669;53.356;-1.464;2022-07-24T05:57:13;100145.19;;;18.62;100.00
29839;BME280;18669;53.356;-1.464;2022-07-24T05:59:39;100148.75;;;18.62;100.00
29839;BME280;18669;53.356;-1.464;2022-07-24T06:02:05;100143.78;;;18.71;100.00
29839;BME280;18669;53.356;-1.464;2022-07-24T06:04:31;100130.38;;;18.72;100.00
29839;BME280;18669;53.356;-1.464;2022-07-24T06:06:57;100140.63;;;18.78;100.00
29839;BME280;18669;53.356;-1.464;2022-07-24T06:09:22;100135.00;;;18.83;100.00
29839;BME280;18669;53.356;-1.464;2022-07-24T06:11:48;100138.44;;;18.85;100.00
29839;BME280;18669;53.356;-1.464;2022-07-24T06:14:14;100139.50;;;18.83;100.00
29839;BME280;18669;53.356;-1.464;2022-07-24T06:16:40;100136.44;;;18.89;100.00
29839;BME280;18669;53.356;-1.464;2022-07-24T06:19:06;100129.28;;;18.89;100.00
29839;BME280;18669;53.356;-1.464;2022-07-24T06:21:31;100129.19;;;18.91;100.00
29839;BME280;18669;53.356;-1.464;2022-07-24T06:24:00;100128.81;;;18.97;100.00
29839;BME280;18669;53.356;-1.464;2022-07-24T06:26:26;100128.00;;;18.97;100.00
29839;BME280;18669;53.356;-1.464;2022-07-24T06:28:52;100129.59;;;18.99;100.00
29839;BME280;18669;53.356;-1.464;2022-07-24T06:31:18;100132.06;;;19.02;100.00
29839;BME280;18669;53.356;-1.464;2022-07-24T06:33:44;100126.66;;;19.04;100.00
29839;BME280;18669;53.356;-1.464;2022-07-24T06:36:11;100126.66;;;19.04;100.00
29839;BME280;18669;53.356;-1.464;2022-07-24T06:38:37;100129.38;;;19.02;100.00
29839;BME280;18669;53.356;-1.464;2022-07-24T06:41:03;100127.78;;;19.00;100.00
29839;BME280;18669;53.356;-1.464;2022-07-24T06:43:28;100129.31;;;19.04;100.00
29839;BME280;18669;53.356;-1.464;2022-07-24T06:45:55;100123.09;;;19.03;100.00
29839;BME280;18669;53.356;-1.464;2022-07-24T06:48:20;100127.28;;;19.07;100.00
29839;BME280;18669;53.356;-1.464;2022-07-24T06:50:47;100131.47;;;19.12;100.00
29839;BME280;18669;53.356;-1.464;2022-07-24T06:53:13;100127.94;;;19.11;100.00
29839;BME280;18669;53.356;-1.464;2022-07-24T06:55:39;100135.53;;;19.17;100.00
29839;BME280;18669;53.356;-1.464;2022-07-24T06:58:04;100136.22;;;19.21;100.00
29839;BME280;18669;53.356;-1.464;2022-07-24T07:00:30;100126.50;;;19.20;100.00
29839;BME280;18669;53.356;-1.464;2022-07-24T07:02:58;100125.63;;;19.19;100.00
29839;BME280;18669;53.356;-1.464;2022-07-24T07:05:24;100127.34;;;19.20;100.00
29839;BME280;18669;53.356;-1.464;2022-07-24T07:07:50;100127.53;;;19.17;100.00
29839;BME280;18669;53.356;-1.464;2022-07-24T07:10:16;100131.72;;;19.21;100.00
29839;BME280;18669;53.356;-1.464;2022-07-24T07:12:42;100124.09;;;19.30;100.00
29839;BME280;18669;53.356;-1.464;2022-07-24T07:15:08;100128.66;;;19.28;100.00
29839;BME280;18669;53.356;-1.464;2022-07-24T07:17:39;100117.25;;;19.26;100.00
29839;BME280;18669;53.356;-1.464;2022-07-24T07:20:05;100115.09;;;19.18;100.00
29839;BME280;18669;53.356;-1.464;2022-07-24T07:22:32;100123.34;;;19.28;100.00
29839;BME280;18669;53.356;-1.464;2022-07-24T07:24:58;100125.41;;;19.37;100.00
29839;BME280;18669;53.356;-1.464;2022-07-24T07:27:24;100126.81;;;19.43;100.00
29839;BME280;18669;53.356;-1.464;2022-07-24T07:41:05;100130.63;;;19.66;100.00
29839;BME280;18669;53.356;-1.464;2022-07-24T07:43:31;100113.09;;;19.62;100.00
29839;BME280;18669;53.356;-1.464;2022-07-24T07:45:58;100129.09;;;19.62;100.00
29839;BME280;18669;53.356;-1.464;2022-07-24T07:48:24;100125.16;;;19.67;100.00
29839;BME280;18669;53.356;-1.464;2022-07-24T07:50:50;100124.13;;;19.83;100.00
29839;BME280;18669;53.356;-1.464;2022-07-24T07:53:16;100124.97;;;19.83;100.00
29839;BME280;18669;53.356;-1.464;2022-07-24T07:55:44;100119.63;;;19.83;100.00
29839;BME280;18669;53.356;-1.464;2022-07-24T07:58:14;100119.44;;;19.87;100.00
29839;BME280;18669;53.356;-1.464;2022-07-24T08:00:41;100123.16;;;19.71;100.00
29839;BME280;18669;53.356;-1.464;2022-07-24T08:03:07;100112.16;;;19.76;100.00
29839;BME280;18669;53.356;-1.464;2022-07-24T08:05:34;100119.00;;;19.80;100.00
29839;BME280;18669;53.356;-1.464;2022-07-24T08:08:00;100108.75;;;19.87;100.00
29839;BME280;18669;53.356;-1.464;2022-07-24T08:10:26;100111.94;;;20.06;100.00
29839;BME280;18669;53.356;-1.464;2022-07-24T08:12:53;100115.44;;;20.20;100.00
29839;BME280;18669;53.356;-1.464;2022-07-24T08:15:19;100109.78;;;20.24;100.00
29839;BME280;18669;53.356;-1.464;2022-07-24T08:17:51;100101.66;;;20.26;100.00
29839;BME280;18669;53.356;-1.464;2022-07-24T08:20:17;100100.03;;;19.97;100.00
29839;BME280;18669;53.356;-1.464;2022-07-24T08:22:43;100102.06;;;19.94;100.00
29839;BME280;18669;53.356;-1.464;2022-07-24T08:25:10;100106.63;;;19.79;100.00
29839;BME280;18669;53.356;-1.464;2022-07-24T08:27:37;100100.09;;;19.70;100.00
29839;BME280;18669;53.356;-1.464;2022-07-24T08:30:05;100113.34;;;19.85;100.00
29839;BME280;18669;53.356;-1.464;2022-07-24T08:32:31;100125.06;;;19.69;100.00
29839;BME280;18669;53.356;-1.464;2022-07-24T08:34:57;100103.94;;;19.66;100.00
29839;BME280;18669;53.356;-1.464;2022-07-24T08:37:23;100102.31;;;19.63;100.00
29839;BME280;18669;53.356;-1.464;2022-07-24T08:39:49;100107.91;;;19.73;100.00
29839;BME280;18669;53.356;-1.464;2022-07-24T08:42:16;100108.41;;;19.78;100.00
29839;BME280;18669;53.356;-1.464;2022-07-24T08:44:42;100116.13;;;19.83;100.00
29839;BME280;18669;53.356;-1.464;2022-07-24T08:47:08;100105.47;;;19.83;100.00
29839;BME280;18669;53.356;-1.464;2022-07-24T08:49:36;100102.72;;;19.97;100.00
29839;BME280;18669;53.356;-1.464;2022-07-24T08:52:04;100101.13;;;20.08;100.00
29839;BME280;18669;53.356;-1.464;2022-07-24T08:54:35;100109.34;;;20.18;100.00
29839;BME280;18669;53.356;-1.464;2022-07-24T08:57:03;100105.09;;;20.28;100.00
29839;BME280;18669;53.356;-1.464;2022-07-24T08:59:30;100099.19;;;20.36;100.00
29839;BME280;18669;53.356;-1.464;2022-07-24T09:01:56;100102.53;;;20.39;100.00
29839;BME280;18669;53.356;-1.464;2022-07-24T09:04:43;100085.50;;;20.53;100.00
29839;BME280;18669;53.356;-1.464;2022-07-24T09:07:15;100087.88;;;20.45;100.00
29839;BME280;18669;53.356;-1.464;2022-07-24T09:09:44;100087.31;;;20.53;100.00
29839;BME280;18669;53.356;-1.464;2022-07-24T09:12:15;100082.59;;;20.69;100.00
29839;BME280;18669;53.356;-1.464;2022-07-24T09:14:46;100092.66;;;20.66;100.00
29839;BME280;18669;53.356;-1.464;2022-07-24T09:17:15;100078.44;;;20.65;100.00
29839;BME280;18669;53.356;-1.464;2022-07-24T09:20:01;100082.94;;;20.78;100.00
29839;BME280;18669;53.356;-1.464;2022-07-24T09:25:15;100080.59;;;20.97;100.00
29839;BME280;18669;53.356;-1.464;2022-07-24T09:30:32;100066.16;;;21.24;100.00
29839;BME280;18669;53.356;-1.464;2022-07-24T09:35:42;100060.94;;;21.23;100.00
29839;BME280;18669;53.356;-1.464;2022-07-24T09:38:12;100061.91;;;21.22;100.00
29839;BME280;18669;53.356;-1.464;2022-07-24T09:40:43;100074.06;;;21.26;100.00
29839;BME280;18669;53.356;-1.464;2022-07-24T09:43:19;100073.13;;;21.38;100.00
29839;BME280;18669;53.356;-1.464;2022-07-24T09:49:17;100072.59;;;21.22;100.00
29839;BME280;18669;53.356;-1.464;2022-07-24T09:51:16;100067.63;;;21.04;100.00
29839;BME280;18669;53.356;-1.464;2022-07-24T09:53:44;100074.25;;;21.11;100.00
29839;BME280;18669;53.356;-1.464;2022-07-24T09:56:16;100071.50;;;21.24;100.00
29839;BME280;18669;53.356;-1.464;2022-07-24T10:01:14;100079.72;;;21.34;100.00
29839;BME280;18669;53.356;-1.464;2022-07-24T10:03:43;100081.44;;;21.35;100.00
29839;BME280;18669;53.356;-1.464;2022-07-24T10:06:12;100069.00;;;21.34;100.00
29839;BME280;18669;53.356;-1.464;2022-07-24T10:08:41;100076.56;;;21.40;100.00
29839;BME280;18669;53.356;-1.464;2022-07-24T10:11:09;100081.59;;;21.45;100.00
29839;BME280;18669;53.356;-1.464;2022-07-24T10:13:36;100076.09;;;21.46;100.00
29839;BME280;18669;53.356;-1.464;2022-07-24T10:18:48;100079.53;;;21.84;100.00
29839;BME280;18669;53.356;-1.464;2022-07-24T10:21:20;100082.22;;;21.96;100.00
29839;BME280;18669;53.356;-1.464;2022-07-24T10:24:12;100085.78;;;21.96;100.00
29839;BME280;18669;53.356;-1.464;2022-07-24T10:26:47;100059.97;;;21.95;100.00
29839;BME280;18669;53.356;-1.464;2022-07-24T10:29:18;100080.81;;;22.14;100.00
29839;BME280;18669;53.356;-1.464;2022-07-24T10:31:52;100075.09;;;22.30;100.00
29839;BME280;18669;53.356;-1.464;2022-07-24T10:37:09;100073.75;;;22.36;100.00
29839;BME280;18669;53.356;-1.464;2022-07-24T10:42:16;100064.75;;;22.14;100.00
29839;BME280;18669;53.356;-1.464;2022-07-24T10:44:43;100054.63;;;22.07;100.00
29839;BME280;18669;53.356;-1.464;2022-07-24T10:47:12;100062.16;;;22.13;100.00
29839;BME280;18669;53.356;-1.464;2022-07-24T10:49:43;100055.84;;;22.02;100.00
29839;BME280;18669;53.356;-1.464;2022-07-24T10:52:26;100047.06;;;22.00;100.00
29839;BME280;18669;53.356;-1.464;2022-07-24T10:58:02;100055.97;;;22.24;100.00
29839;BME280;18669;53.356;-1.464;2022-07-24T11:00:38;100055.72;;;22.38;100.00
29839;BME280;18669;53.356;-1.464;2022-07-24T11:05:43;100044.06;;;22.50;100.00
29839;BME280;18669;53.356;-1.464;2022-07-24T11:08:15;100039.63;;;22.72;100.00
29839;BME280;18669;53.356;-1.464;2022-07-24T11:10:58;100050.69;;;22.79;100.00
29839;BME280;18669;53.356;-1.464;2022-07-24T11:21:03;100040.75;;;22.35;100.00
29839;BME280;18669;53.356;-1.464;2022-07-24T11:23:30;100045.84;;;22.16;100.00
29839;BME280;18669;53.356;-1.464;2022-07-24T11:32:05;100051.81;;;21.25;100.00
29839;BME280;18669;53.356;-1.464;2022-07-24T11:34:34;100045.09;;;21.20;100.00
29839;BME280;18669;53.356;-1.464;2022-07-24T11:37:02;100047.25;;;21.14;100.00
29839;BME280;18669;53.356;-1.464;2022-07-24T11:39:35;100029.19;;;21.18;100.00
29839;BME280;18669;53.356;-1.464;2022-07-24T11:42:04;100027.41;;;21.30;100.00
29839;BME280;18669;53.356;-1.464;2022-07-24T11:44:39;100034.72;;;21.75;100.00
29839;BME280;18669;53.356;-1.464;2022-07-24T11:49:49;100036.13;;;22.60;100.00
29839;BME280;18669;53.356;-1.464;2022-07-24T11:54:57;100032.84;;;22.23;100.00
29839;BME280;18669;53.356;-1.464;2022-07-24T11:57:28;100016.63;;;22.13;100.00
29839;BME280;18669;53.356;-1.464;2022-07-24T11:59:54;100008.22;;;22.06;100.00
29839;BME280;18669;53.356;-1.464;2022-07-24T12:02:22;100010.53;;;22.33;100.00
29839;BME280;18669;53.356;-1.464;2022-07-24T12:04:49;100010.03;;;22.51;100.00
29839;BME280;18669;53.356;-1.464;2022-07-24T12:07:21;99995.22;;;22.91;100.00
29839;BME280;18669;53.356;-1.464;2022-07-24T12:10:01;99998.06;;;23.10;100.00
29839;BME280;18669;53.356;-1.464;2022-07-24T12:15:08;99991.34;;;22.84;100.00
29839;BME280;18669;53.356;-1.464;2022-07-24T12:20:41;99988.78;;;23.15;100.00
29839;BME280;18669;53.356;-1.464;2022-07-24T12:23:12;99980.19;;;23.00;100.00
29839;BME280;18669;53.356;-1.464;2022-07-24T12:25:39;99980.94;;;22.90;100.00
29839;BME280;18669;53.356;-1.464;2022-07-24T12:28:09;99979.25;;;23.22;100.00
29839;BME280;18669;53.356;-1.464;2022-07-24T12:30:37;99985.03;;;23.06;100.00
29839;BME280;18669;53.356;-1.464;2022-07-24T12:41:16;99967.34;;;23.36;100.00
29839;BME280;18669;53.356;-1.464;2022-07-24T12:46:40;99960.09;;;22.94;100.00
29839;BME280;18669;53.356;-1.464;2022-07-24T12:49:11;99945.75;;;22.84;100.00
29839;BME280;18669;53.356;-1.464;2022-07-24T12:51:55;99960.69;;;22.98;100.00
29839;BME280;18669;53.356;-1.464;2022-07-24T12:56:58;99956.16;;;22.98;100.00
29839;BME280;18669;53.356;-1.464;2022-07-24T12:59:32;99940.88;;;23.10;100.00
29839;BME280;18669;53.356;-1.464;2022-07-24T13:02:07;99956.88;;;23.00;100.00
29839;BME280;18669;53.356;-1.464;2022-07-24T13:04:40;99951.19;;;23.26;100.00
29839;BME280;18669;53.356;-1.464;2022-07-24T13:07:08;99948.91;;;23.74;100.00
29839;BME280;18669;53.356;-1.464;2022-07-24T13:09:35;99936.19;;;24.07;100.00
29839;BME280;18669;53.356;-1.464;2022-07-24T13:12:01;99932.41;;;24.09;100.00
29839;BME280;18669;53.356;-1.464;2022-07-24T13:14:27;99924.03;;;24.03;100.00
29839;BME280;18669;53.356;-1.464;2022-07-24T13:17:04;99922.69;;;23.87;100.00
29839;BME280;18669;53.356;-1.464;2022-07-24T13:19:32;99906.72;;;23.33;100.00
29839;BME280;18669;53.356;-1.464;2022-07-24T13:22:00;99902.44;;;22.88;100.00
29839;BME280;18669;53.356;-1.464;2022-07-24T13:24:27;99910.19;;;22.70;100.00
29839;BME280;18669;53.356;-1.464;2022-07-24T13:26:53;99917.66;;;22.67;100.00
29839;BME280;18669;53.356;-1.464;2022-07-24T13:29:22;99908.69;;;22.45;100.00
29839;BME280;18669;53.356;-1.464;2022-07-24T13:31:50;99916.41;;;22.15;100.00
29839;BME280;18669;53.356;-1.464;2022-07-24T13:34:16;99911.34;;;21.89;100.00
29839;BME280;18669;53.356;-1.464;2022-07-24T13:36:42;99911.94;;;21.82;100.00
29839;BME280;18669;53.356;-1.464;2022-07-24T13:39:09;99913.03;;;21.68;100.00
29839;BME280;18669;53.356;-1.464;2022-07-24T13:41:36;99908.66;;;21.67;100.00
29839;BME280;18669;53.356;-1.464;2022-07-24T13:44:06;99921.69;;;21.71;100.00
29839;BME280;18669;53.356;-1.464;2022-07-24T13:46:33;99914.00;;;21.78;100.00
29839;BME280;18669;53.356;-1.464;2022-07-24T13:49:01;99909.97;;;21.84;100.00